sensor_id;sensor_type;location;lat;lon;timestamp;P1;durP1;ratioP1;P2;durP2;ratioP2
38693;SDS011;24447;43.460;25.744;2022-09-09T00:01:46;13.25;;;5.30;;
38693;SDS011;24447;43.460;25.744;2022-09-09T00:07:10;11.82;;;5.43;;
38693;SDS011;24447;43.460;25.744;2022-09-09T00:16:19;11.13;;;5.32;;
38693;SDS011;24447;43.460;25.744;2022-09-09T00:18:35;9.55;;;5.20;;
38693;SDS011;24447;43.460;25.744;2022-09-09T00:21:13;8.65;;;4.78;;
38693;SDS011;24447;43.460;25.744;2022-09-09T00:23:47;8.38;;;4.85;;
38693;SDS011;24447;43.460;25.744;2022-09-09T00:26:19;9.20;;;4.72;;
38693;SDS011;24447;43.460;25.744;2022-09-09T00:29:02;10.05;;;5.38;;
38693;SDS011;24447;43.460;25.744;2022-09-09T00:31:48;8.73;;;4.60;;
38693;SDS011;24447;43.460;25.744;2022-09-09T00:34:15;11.63;;;4.85;;
38693;SDS011;24447;43.460;25.744;2022-09-09T00:36:43;9.05;;;5.15;;
38693;SDS011;24447;43.460;25.744;2022-09-09T00:45:35;10.88;;;5.78;;
38693;SDS011;24447;43.460;25.744;2022-09-09T00:48:05;8.73;;;4.95;;
38693;SDS011;24447;43.460;25.744;2022-09-09T00:56:27;12.35;;;4.45;;
38693;SDS011;24447;43.460;25.744;2022-09-09T01:01:33;8.82;;;5.07;;
38693;SDS011;24447;43.460;25.744;2022-09-09T01:04:00;8.70;;;4.72;;
38693;SDS011;24447;43.460;25.744;2022-09-09T01:06:31;8.98;;;4.60;;
38693;SDS011;24447;43.460;25.744;2022-09-09T01:17:24;9.50;;;4.20;;
38693;SDS011;24447;43.460;25.744;2022-09-09T01:20:04;10.15;;;4.80;;
38693;SDS011;24447;43.460;25.744;2022-09-09T01:22:38;10.00;;;4.40;;
38693;SDS011;24447;43.460;25.744;2022-09-09T01:28:13;9.35;;;4.43;;
38693;SDS011;24447;43.460;25.744;2022-09-09T01:30:42;9.70;;;4.95;;
38693;SDS011;24447;43.460;25.744;2022-09-09T01:33:10;8.77;;;4.72;;
38693;SDS011;24447;43.460;25.744;2022-09-09T01:38:34;8.50;;;4.53;;
38693;SDS011;24447;43.460;25.744;2022-09-09T01:41:01;9.75;;;4.68;;
38693;SDS011;24447;43.460;25.744;2022-09-09T01:43:27;9.85;;;4.85;;
38693;SDS011;24447;43.460;25.744;2022-09-09T01:45:54;8.55;;;4.68;;
38693;SDS011;24447;43.460;25.744;2022-09-09T01:48:22;7.25;;;4.50;;
38693;SDS011;24447;43.460;25.744;2022-09-09T01:50:49;13.10;;;5.78;;
38693;SDS011;24447;43.460;25.744;2022-09-09T01:53:15;10.32;;;4.63;;
38693;SDS011;24447;43.460;25.744;2022-09-09T01:55:45;9.80;;;5.03;;
38693;SDS011;24447;43.460;25.744;2022-09-09T02:03:56;8.82;;;4.72;;
38693;SDS011;24447;43.460;25.744;2022-09-09T02:06:36;9.45;;;4.85;;
38693;SDS011;24447;43.460;25.744;2022-09-09T02:09:07;12.27;;;4.72;;
38693;SDS011;24447;43.460;25.744;2022-09-09T02:11:37;7.53;;;4.68;;
38693;SDS011;24447;43.460;25.744;2022-09-09T02:14:10;12.57;;;4.70;;
38693;SDS011;24447;43.460;25.744;2022-09-09T02:16:40;9.48;;;4.97;;
38693;SDS011;24447;43.460;25.744;2022-09-09T02:19:09;11.00;;;4.63;;
38693;SDS011;24447;43.460;25.744;2022-09-09T02:21:39;7.03;;;4.35;;
38693;SDS011;24447;43.460;25.744;2022-09-09T02:24:07;14.40;;;4.90;;
38693;SDS011;24447;43.460;25.744;2022-09-09T02:26:36;9.30;;;5.10;;
38693;SDS011;24447;43.460;25.744;2022-09-09T02:29:06;8.23;;;4.60;;
38693;SDS011;24447;43.460;25.744;2022-09-09T02:31:34;9.85;;;4.55;;
38693;SDS011;24447;43.460;25.744;2022-09-09T02:34:01;7.72;;;4.70;;
38693;SDS011;24447;43.460;25.744;2022-09-09T02:36:30;13.20;;;5.57;;
38693;SDS011;24447;43.460;25.744;2022-09-09T02:38:58;7.75;;;4.82;;
38693;SDS011;24447;43.460;25.744;2022-09-09T02:41:26;9.23;;;4.78;;
38693;SDS011;24447;43.460;25.744;2022-09-09T02:43:56;11.30;;;4.82;;
38693;SDS011;24447;43.460;25.744;2022-09-09T02:46:24;6.93;;;4.40;;
38693;SDS011;24447;43.460;25.744;2022-09-09T02:49:11;11.07;;;5.13;;
38693;SDS011;24447;43.460;25.744;2022-09-09T02:51:46;10.23;;;4.75;;
38693;SDS011;24447;43.460;25.744;2022-09-09T02:56:56;8.85;;;4.50;;
38693;SDS011;24447;43.460;25.744;2022-09-09T02:59:27;7.97;;;4.72;;
38693;SDS011;24447;43.460;25.744;2022-09-09T03:01:55;9.95;;;4.40;;
38693;SDS011;24447;43.460;25.744;2022-09-09T03:04:21;11.35;;;5.22;;
38693;SDS011;24447;43.460;25.744;2022-09-09T03:06:47;9.32;;;4.78;;
38693;SDS011;24447;43.460;25.744;2022-09-09T03:09:13;10.05;;;4.63;;
38693;SDS011;24447;43.460;25.744;2022-09-09T03:11:39;9.55;;;4.80;;
38693;SDS011;24447;43.460;25.744;2022-09-09T03:14:04;8.77;;;4.88;;
38693;SDS011;24447;43.460;25.744;2022-09-09T03:16:31;9.00;;;5.25;;
38693;SDS011;24447;43.460;25.744;2022-09-09T03:18:59;12.65;;;5.25;;
38693;SDS011;24447;43.460;25.744;2022-09-09T03:21:25;9.48;;;4.72;;
38693;SDS011;24447;43.460;25.744;2022-09-09T03:23:51;12.88;;;5.13;;
38693;SDS011;24447;43.460;25.744;2022-09-09T03:26:17;10.55;;;5.15;;
38693;SDS011;24447;43.460;25.744;2022-09-09T03:28:44;17.10;;;6.70;;
38693;SDS011;24447;43.460;25.744;2022-09-09T03:31:10;10.52;;;5.57;;
38693;SDS011;24447;43.460;25.744;2022-09-09T03:33:36;13.07;;;6.65;;
38693;SDS011;24447;43.460;25.744;2022-09-09T03:36:03;8.30;;;4.78;;
38693;SDS011;24447;43.460;25.744;2022-09-09T03:38:30;12.57;;;5.20;;
38693;SDS011;24447;43.460;25.744;2022-09-09T03:40:57;8.05;;;4.30;;
38693;SDS011;24447;43.460;25.744;2022-09-09T03:43:24;10.85;;;4.70;;
38693;SDS011;24447;43.460;25.744;2022-09-09T03:45:51;14.85;;;4.95;;
38693;SDS011;24447;43.460;25.744;2022-09-09T03:48:18;13.45;;;5.55;;
38693;SDS011;24447;43.460;25.744;2022-09-09T03:50:48;9.27;;;4.63;;
38693;SDS011;24447;43.460;25.744;2022-09-09T03:55:45;13.05;;;4.68;;
38693;SDS011;24447;43.460;25.744;2022-09-09T03:58:12;10.65;;;5.47;;
38693;SDS011;24447;43.460;25.744;2022-09-09T04:00:39;13.18;;;5.60;;
38693;SDS011;24447;43.460;25.744;2022-09-09T04:03:10;15.57;;;5.40;;
38693;SDS011;24447;43.460;25.744;2022-09-09T04:05:36;14.00;;;4.90;;
38693;SDS011;24447;43.460;25.744;2022-09-09T04:08:05;9.85;;;4.70;;
38693;SDS011;24447;43.460;25.744;2022-09-09T04:10:34;13.30;;;4.97;;
38693;SDS011;24447;43.460;25.744;2022-09-09T04:13:04;15.65;;;5.45;;
38693;SDS011;24447;43.460;25.744;2022-09-09T04:15:30;16.48;;;5.63;;
38693;SDS011;24447;43.460;25.744;2022-09-09T04:17:57;10.15;;;4.82;;
38693;SDS011;24447;43.460;25.744;2022-09-09T04:20:23;11.55;;;5.13;;
38693;SDS011;24447;43.460;25.744;2022-09-09T04:22:49;15.50;;;4.75;;
38693;SDS011;24447;43.460;25.744;2022-09-09T04:25:15;18.00;;;5.07;;
38693;SDS011;24447;43.460;25.744;2022-09-09T04:27:41;13.40;;;4.72;;
38693;SDS011;24447;43.460;25.744;2022-09-09T04:30:07;11.73;;;4.72;;
38693;SDS011;24447;43.460;25.744;2022-09-09T04:32:34;7.78;;;4.85;;
38693;SDS011;24447;43.460;25.744;2022-09-09T04:35:01;9.88;;;3.67;;
38693;SDS011;24447;43.460;25.744;2022-09-09T04:37:27;11.18;;;4.60;;
38693;SDS011;24447;43.460;25.744;2022-09-09T04:39:53;10.57;;;4.38;;
38693;SDS011;24447;43.460;25.744;2022-09-09T04:42:19;12.82;;;4.20;;
38693;SDS011;24447;43.460;25.744;2022-09-09T04:44:45;12.23;;;4.78;;
38693;SDS011;24447;43.460;25.744;2022-09-09T04:47:11;9.65;;;4.03;;
38693;SDS011;24447;43.460;25.744;2022-09-09T04:49:37;13.10;;;5.07;;
38693;SDS011;24447;43.460;25.744;2022-09-09T04:52:03;11.23;;;4.35;;
38693;SDS011;24447;43.460;25.744;2022-09-09T04:54:29;15.77;;;5.00;;
38693;SDS011;24447;43.460;25.744;2022-09-09T04:56:55;12.55;;;4.03;;
38693;SDS011;24447;43.460;25.744;2022-09-09T04:59:21;16.67;;;4.40;;
38693;SDS011;24447;43.460;25.744;2022-09-09T05:01:48;11.80;;;3.97;;
38693;SDS011;24447;43.460;25.744;2022-09-09T05:04:15;10.00;;;4.38;;
38693;SDS011;24447;43.460;25.744;2022-09-09T05:06:41;26.90;;;5.40;;
38693;SDS011;24447;43.460;25.744;2022-09-09T05:09:07;10.65;;;4.47;;
38693;SDS011;24447;43.460;25.744;2022-09-09T05:11:34;13.23;;;4.50;;
38693;SDS011;24447;43.460;25.744;2022-09-09T05:14:03;16.52;;;4.70;;
38693;SDS011;24447;43.460;25.744;2022-09-09T05:16:30;18.08;;;4.13;;
38693;SDS011;24447;43.460;25.744;2022-09-09T05:18:56;9.77;;;3.20;;
38693;SDS011;24447;43.460;25.744;2022-09-09T05:21:23;9.18;;;3.30;;
38693;SDS011;24447;43.460;25.744;2022-09-09T05:23:51;11.00;;;3.72;;
38693;SDS011;24447;43.460;25.744;2022-09-09T07:03:36;8.27;;;3.20;;
38693;SDS011;24447;43.460;25.744;2022-09-09T07:06:02;3.55;;;2.72;;
38693;SDS011;24447;43.460;25.744;2022-09-09T07:08:29;4.93;;;3.38;;
38693;SDS011;24447;43.460;25.744;2022-09-09T07:11:01;9.88;;;3.75;;
38693;SDS011;24447;43.460;25.744;2022-09-09T07:13:31;4.72;;;3.10;;
38693;SDS011;24447;43.460;25.744;2022-09-09T07:16:07;11.23;;;4.00;;
38693;SDS011;24447;43.460;25.744;2022-09-09T07:18:34;5.00;;;3.00;;
38693;SDS011;24447;43.460;25.744;2022-09-09T07:21:01;9.52;;;3.15;;
38693;SDS011;24447;43.460;25.744;2022-09-09T07:23:28;14.70;;;3.92;;
38693;SDS011;24447;43.460;25.744;2022-09-09T07:25:55;3.78;;;2.97;;
38693;SDS011;24447;43.460;25.744;2022-09-09T07:28:21;6.85;;;3.35;;
38693;SDS011;24447;43.460;25.744;2022-09-09T07:30:57;4.75;;;3.25;;
38693;SDS011;24447;43.460;25.744;2022-09-09T07:33:24;5.30;;;3.47;;
38693;SDS011;24447;43.460;25.744;2022-09-09T07:35:51;8.00;;;3.92;;
38693;SDS011;24447;43.460;25.744;2022-09-09T07:38:18;3.85;;;2.97;;
38693;SDS011;24447;43.460;25.744;2022-09-09T07:40:47;8.90;;;3.10;;
38693;SDS011;24447;43.460;25.744;2022-09-09T07:43:13;9.27;;;4.13;;
38693;SDS011;24447;43.460;25.744;2022-09-09T07:45:42;9.13;;;3.55;;
38693;SDS011;24447;43.460;25.744;2022-09-09T07:48:08;6.57;;;3.45;;
38693;SDS011;24447;43.460;25.744;2022-09-09T07:50:34;5.85;;;2.90;;
38693;SDS011;24447;43.460;25.744;2022-09-09T07:53:00;5.93;;;3.00;;
38693;SDS011;24447;43.460;25.744;2022-09-09T07:55:27;10.10;;;3.63;;
38693;SDS011;24447;43.460;25.744;2022-09-09T07:57:53;8.10;;;3.08;;
38693;SDS011;24447;43.460;25.744;2022-09-09T08:00:19;13.88;;;4.07;;
38693;SDS011;24447;43.460;25.744;2022-09-09T08:02:48;4.72;;;3.35;;
38693;SDS011;24447;43.460;25.744;2022-09-09T08:05:15;4.53;;;3.58;;
38693;SDS011;24447;43.460;25.744;2022-09-09T08:07:41;13.40;;;3.65;;
38693;SDS011;24447;43.460;25.744;2022-09-09T08:10:07;6.10;;;3.47;;
38693;SDS011;24447;43.460;25.744;2022-09-09T08:12:33;13.73;;;3.60;;
38693;SDS011;24447;43.460;25.744;2022-09-09T08:14:59;6.38;;;3.67;;
38693;SDS011;24447;43.460;25.744;2022-09-09T08:17:25;7.45;;;3.25;;
38693;SDS011;24447;43.460;25.744;2022-09-09T08:19:51;6.47;;;3.10;;
38693;SDS011;24447;43.460;25.744;2022-09-09T08:22:17;7.03;;;3.67;;
38693;SDS011;24447;43.460;25.744;2022-09-09T08:24:44;6.43;;;3.42;;
38693;SDS011;24447;43.460;25.744;2022-09-09T08:27:10;9.05;;;3.50;;
38693;SDS011;24447;43.460;25.744;2022-09-09T08:29:36;13.35;;;3.72;;
38693;SDS011;24447;43.460;25.744;2022-09-09T08:32:02;3.88;;;2.88;;
38693;SDS011;24447;43.460;25.744;2022-09-09T08:34:29;7.35;;;3.13;;
38693;SDS011;24447;43.460;25.744;2022-09-09T08:36:56;9.10;;;3.70;;
38693;SDS011;24447;43.460;25.744;2022-09-09T08:39:22;8.85;;;3.97;;
38693;SDS011;24447;43.460;25.744;2022-09-09T08:41:55;10.02;;;3.90;;
38693;SDS011;24447;43.460;25.744;2022-09-09T08:52:31;5.30;;;3.78;;
38693;SDS011;24447;43.460;25.744;2022-09-09T08:58:23;9.70;;;4.20;;
38693;SDS011;24447;43.460;25.744;2022-09-09T09:09:05;12.85;;;3.50;;
38693;SDS011;24447;43.460;25.744;2022-09-09T09:11:37;6.85;;;4.00;;
38693;SDS011;24447;43.460;25.744;2022-09-09T09:14:09;6.32;;;3.88;;
38693;SDS011;24447;43.460;25.744;2022-09-09T09:19:12;5.78;;;3.30;;
38693;SDS011;24447;43.460;25.744;2022-09-09T09:21:41;9.07;;;3.78;;
38693;SDS011;24447;43.460;25.744;2022-09-09T09:24:19;10.15;;;3.47;;
38693;SDS011;24447;43.460;25.744;2022-09-09T09:26:46;10.25;;;3.58;;
38693;SDS011;24447;43.460;25.744;2022-09-09T09:29:13;11.23;;;3.80;;
38693;SDS011;24447;43.460;25.744;2022-09-09T09:31:45;7.20;;;3.55;;
38693;SDS011;24447;43.460;25.744;2022-09-09T09:34:22;8.70;;;3.75;;
38693;SDS011;24447;43.460;25.744;2022-09-09T09:36:53;7.75;;;3.47;;
38693;SDS011;24447;43.460;25.744;2022-09-09T09:39:24;5.55;;;3.40;;
38693;SDS011;24447;43.460;25.744;2022-09-09T09:41:52;6.15;;;3.40;;
38693;SDS011;24447;43.460;25.744;2022-09-09T09:44:31;5.72;;;3.10;;
38693;SDS011;24447;43.460;25.744;2022-09-09T09:47:08;5.97;;;3.38;;
38693;SDS011;24447;43.460;25.744;2022-09-09T09:49:38;6.47;;;3.22;;
38693;SDS011;24447;43.460;25.744;2022-09-09T09:52:05;5.32;;;3.03;;
38693;SDS011;24447;43.460;25.744;2022-09-09T09:54:33;6.40;;;3.65;;
38693;SDS011;24447;43.460;25.744;2022-09-09T09:57:12;7.97;;;3.42;;
38693;SDS011;24447;43.460;25.744;2022-09-09T09:59:40;6.68;;;3.58;;
38693;SDS011;24447;43.460;25.744;2022-09-09T10:04:45;8.77;;;4.07;;
38693;SDS011;24447;43.460;25.744;2022-09-09T10:07:12;7.22;;;3.80;;
38693;SDS011;24447;43.460;25.744;2022-09-09T10:09:43;10.75;;;3.95;;
38693;SDS011;24447;43.460;25.744;2022-09-09T10:22:35;7.10;;;3.75;;
38693;SDS011;24447;43.460;25.744;2022-09-09T10:30:45;14.15;;;4.10;;
38693;SDS011;24447;43.460;25.744;2022-09-09T10:33:18;10.07;;;4.20;;
38693;SDS011;24447;43.460;25.744;2022-09-09T10:36:19;6.25;;;3.53;;
38693;SDS011;24447;43.460;25.744;2022-09-09T10:38:47;7.03;;;3.22;;
38693;SDS011;24447;43.460;25.744;2022-09-09T10:52:30;10.10;;;3.88;;
38693;SDS011;24447;43.460;25.744;2022-09-09T10:55:19;5.43;;;3.50;;
38693;SDS011;24447;43.460;25.744;2022-09-09T10:57:47;11.63;;;3.92;;
38693;SDS011;24447;43.460;25.744;2022-09-09T11:02:44;11.65;;;3.70;;
38693;SDS011;24447;43.460;25.744;2022-09-09T11:05:21;16.10;;;4.78;;
38693;SDS011;24447;43.460;25.744;2022-09-09T11:10:24;7.75;;;3.50;;
38693;SDS011;24447;43.460;25.744;2022-09-09T11:13:08;10.55;;;3.22;;
38693;SDS011;24447;43.460;25.744;2022-09-09T11:15:40;5.60;;;3.40;;
38693;SDS011;24447;43.460;25.744;2022-09-09T11:18:13;12.68;;;4.43;;
38693;SDS011;24447;43.460;25.744;2022-09-09T11:20:52;14.00;;;3.83;;
38693;SDS011;24447;43.460;25.744;2022-09-09T11:23:30;8.60;;;3.78;;
38693;SDS011;24447;43.460;25.744;2022-09-09T11:26:04;13.50;;;4.10;;
38693;SDS011;24447;43.460;25.744;2022-09-09T11:31:44;10.70;;;3.63;;
38693;SDS011;24447;43.460;25.744;2022-09-09T11:42:40;9.98;;;4.25;;
38693;SDS011;24447;43.460;25.744;2022-09-09T11:45:26;11.15;;;3.83;;
38693;SDS011;24447;43.460;25.744;2022-09-09T11:47:57;8.88;;;3.70;;
38693;SDS011;24447;43.460;25.744;2022-09-09T11:52:50;8.50;;;4.10;;
38693;SDS011;24447;43.460;25.744;2022-09-09T11:55:26;11.23;;;4.03;;
38693;SDS011;24447;43.460;25.744;2022-09-09T12:00:40;7.55;;;3.95;;
38693;SDS011;24447;43.460;25.744;2022-09-09T12:06:30;15.75;;;3.95;;
38693;SDS011;24447;43.460;25.744;2022-09-09T12:09:15;11.02;;;4.28;;
38693;SDS011;24447;43.460;25.744;2022-09-09T12:11:52;8.32;;;3.40;;
38693;SDS011;24447;43.460;25.744;2022-09-09T12:14:38;12.27;;;4.07;;
38693;SDS011;24447;43.460;25.744;2022-09-09T12:17:24;9.68;;;3.70;;
38693;SDS011;24447;43.460;25.744;2022-09-09T12:20:08;12.50;;;4.07;;
38693;SDS011;24447;43.460;25.744;2022-09-09T12:22:45;13.63;;;3.65;;
38693;SDS011;24447;43.460;25.744;2022-09-09T12:25:23;5.63;;;3.13;;
38693;SDS011;24447;43.460;25.744;2022-09-09T12:28:03;8.70;;;4.20;;
38693;SDS011;24447;43.460;25.744;2022-09-09T12:33:08;9.60;;;3.65;;
38693;SDS011;24447;43.460;25.744;2022-09-09T12:35:37;10.35;;;3.58;;
38693;SDS011;24447;43.460;25.744;2022-09-09T12:38:04;7.13;;;3.58;;
38693;SDS011;24447;43.460;25.744;2022-09-09T12:40:33;15.13;;;3.83;;
38693;SDS011;24447;43.460;25.744;2022-09-09T12:43:20;10.73;;;3.70;;
38693;SDS011;24447;43.460;25.744;2022-09-09T12:45:47;8.98;;;3.58;;
38693;SDS011;24447;43.460;25.744;2022-09-09T12:48:16;7.47;;;3.88;;
38693;SDS011;24447;43.460;25.744;2022-09-09T12:56:04;8.98;;;4.05;;
38693;SDS011;24447;43.460;25.744;2022-09-09T12:58:33;7.53;;;4.07;;
38693;SDS011;24447;43.460;25.744;2022-09-09T13:01:00;10.32;;;3.88;;
38693;SDS011;24447;43.460;25.744;2022-09-09T13:03:30;8.95;;;4.25;;
38693;SDS011;24447;43.460;25.744;2022-09-09T13:06:12;12.52;;;4.35;;
38693;SDS011;24447;43.460;25.744;2022-09-09T13:08:42;8.38;;;3.85;;
38693;SDS011;24447;43.460;25.744;2022-09-09T13:11:10;17.35;;;4.25;;
38693;SDS011;24447;43.460;25.744;2022-09-09T13:13:40;7.10;;;3.53;;
38693;SDS011;24447;43.460;25.744;2022-09-09T13:16:18;10.95;;;3.70;;
38693;SDS011;24447;43.460;25.744;2022-09-09T13:18:45;8.27;;;3.63;;
38693;SDS011;24447;43.460;25.744;2022-09-09T13:21:11;12.18;;;3.78;;
38693;SDS011;24447;43.460;25.744;2022-09-09T13:23:38;7.47;;;3.85;;
38693;SDS011;24447;43.460;25.744;2022-09-09T13:26:05;12.55;;;4.38;;
38693;SDS011;24447;43.460;25.744;2022-09-09T13:28:32;12.60;;;4.97;;
38693;SDS011;24447;43.460;25.744;2022-09-09T13:33:30;8.10;;;3.88;;
38693;SDS011;24447;43.460;25.744;2022-09-09T13:36:04;10.70;;;4.45;;
38693;SDS011;24447;43.460;25.744;2022-09-09T13:39:17;18.40;;;4.50;;
38693;SDS011;24447;43.460;25.744;2022-09-09T13:41:32;12.43;;;4.65;;
38693;SDS011;24447;43.460;25.744;2022-09-09T13:44:00;19.05;;;4.45;;
38693;SDS011;24447;43.460;25.744;2022-09-09T13:51:36;11.00;;;4.03;;
38693;SDS011;24447;43.460;25.744;2022-09-09T13:54:09;9.20;;;3.92;;
38693;SDS011;24447;43.460;25.744;2022-09-09T13:56:36;11.27;;;4.20;;
38693;SDS011;24447;43.460;25.744;2022-09-09T13:59:04;8.30;;;3.72;;
38693;SDS011;24447;43.460;25.744;2022-09-09T14:01:31;13.52;;;4.57;;
38693;SDS011;24447;43.460;25.744;2022-09-09T14:03:59;9.10;;;4.45;;
38693;SDS011;24447;43.460;25.744;2022-09-09T14:06:25;11.85;;;4.30;;
38693;SDS011;24447;43.460;25.744;2022-09-09T14:08:52;13.15;;;4.78;;
38693;SDS011;24447;43.460;25.744;2022-09-09T14:11:19;15.88;;;4.57;;
38693;SDS011;24447;43.460;25.744;2022-09-09T14:13:46;11.30;;;4.05;;
38693;SDS011;24447;43.460;25.744;2022-09-09T14:16:15;13.38;;;4.28;;
38693;SDS011;24447;43.460;25.744;2022-09-09T14:18:42;11.40;;;3.95;;
38693;SDS011;24447;43.460;25.744;2022-09-09T14:21:13;11.60;;;4.13;;
38693;SDS011;24447;43.460;25.744;2022-09-09T14:23:42;11.77;;;4.40;;
38693;SDS011;24447;43.460;25.744;2022-09-09T14:26:09;11.23;;;4.40;;
38693;SDS011;24447;43.460;25.744;2022-09-09T14:28:35;11.65;;;4.97;;
38693;SDS011;24447;43.460;25.744;2022-09-09T14:31:02;13.82;;;5.07;;
38693;SDS011;24447;43.460;25.744;2022-09-09T14:33:33;17.35;;;5.10;;
38693;SDS011;24447;43.460;25.744;2022-09-09T14:36:00;17.60;;;5.13;;
38693;SDS011;24447;43.460;25.744;2022-09-09T14:38:32;12.30;;;5.45;;
38693;SDS011;24447;43.460;25.744;2022-09-09T14:41:00;20.10;;;5.68;;
38693;SDS011;24447;43.460;25.744;2022-09-09T14:43:28;13.55;;;5.20;;
38693;SDS011;24447;43.460;25.744;2022-09-09T14:45:55;16.75;;;5.45;;
38693;SDS011;24447;43.460;25.744;2022-09-09T14:48:21;14.43;;;5.88;;
38693;SDS011;24447;43.460;25.744;2022-09-09T14:50:47;13.48;;;5.40;;
38693;SDS011;24447;43.460;25.744;2022-09-09T14:53:14;11.07;;;4.97;;
38693;SDS011;24447;43.460;25.744;2022-09-09T14:55:41;20.75;;;5.97;;
38693;SDS011;24447;43.460;25.744;2022-09-09T14:58:07;11.77;;;5.45;;
38693;SDS011;24447;43.460;25.744;2022-09-09T15:00:33;22.65;;;12.57;;
38693;SDS011;24447;43.460;25.744;2022-09-09T15:02:59;15.15;;;6.60;;
38693;SDS011;24447;43.460;25.744;2022-09-09T15:05:25;23.20;;;5.88;;
38693;SDS011;24447;43.460;25.744;2022-09-09T15:07:53;17.65;;;5.93;;
38693;SDS011;24447;43.460;25.744;2022-09-09T15:10:19;17.70;;;6.95;;
38693;SDS011;24447;43.460;25.744;2022-09-09T15:12:45;17.63;;;5.85;;
38693;SDS011;24447;43.460;25.744;2022-09-09T15:15:11;15.40;;;6.65;;
38693;SDS011;24447;43.460;25.744;2022-09-09T15:17:37;17.92;;;6.75;;
38693;SDS011;24447;43.460;25.744;2022-09-09T15:20:03;15.50;;;6.78;;
38693;SDS011;24447;43.460;25.744;2022-09-09T15:22:30;19.48;;;8.48;;
38693;SDS011;24447;43.460;25.744;2022-09-09T15:24:57;14.55;;;7.05;;
38693;SDS011;24447;43.460;25.744;2022-09-09T15:27:23;27.83;;;8.57;;
38693;SDS011;24447;43.460;25.744;2022-09-09T15:29:49;25.17;;;8.60;;
38693;SDS011;24447;43.460;25.744;2022-09-09T15:32:16;23.00;;;7.53;;
38693;SDS011;24447;43.460;25.744;2022-09-09T15:34:43;16.33;;;7.30;;
38693;SDS011;24447;43.460;25.744;2022-09-09T15:37:12;20.75;;;7.68;;
38693;SDS011;24447;43.460;25.744;2022-09-09T15:39:38;17.80;;;7.50;;
38693;SDS011;24447;43.460;25.744;2022-09-09T15:42:05;19.85;;;7.25;;
38693;SDS011;24447;43.460;25.744;2022-09-09T15:44:40;17.40;;;6.88;;
38693;SDS011;24447;43.460;25.744;2022-09-09T15:47:07;15.73;;;7.32;;
38693;SDS011;24447;43.460;25.744;2022-09-09T15:49:33;22.60;;;7.47;;
38693;SDS011;24447;43.460;25.744;2022-09-09T15:51:59;24.08;;;7.80;;
38693;SDS011;24447;43.460;25.744;2022-09-09T15:54:33;22.17;;;8.15;;
38693;SDS011;24447;43.460;25.744;2022-09-09T15:57:01;20.35;;;7.90;;
38693;SDS011;24447;43.460;25.744;2022-09-09T15:59:29;18.25;;;7.03;;
38693;SDS011;24447;43.460;25.744;2022-09-09T16:01:56;27.55;;;7.00;;
38693;SDS011;24447;43.460;25.744;2022-09-09T16:04:24;22.70;;;7.38;;
38693;SDS011;24447;43.460;25.744;2022-09-09T16:07:01;20.13;;;8.68;;
38693;SDS011;24447;43.460;25.744;2022-09-09T16:09:29;19.30;;;6.97;;
38693;SDS011;24447;43.460;25.744;2022-09-09T16:11:56;29.10;;;13.63;;
38693;SDS011;24447;43.460;25.744;2022-09-09T16:14:23;13.43;;;6.45;;
38693;SDS011;24447;43.460;25.744;2022-09-09T16:16:50;17.30;;;7.03;;
38693;SDS011;24447;43.460;25.744;2022-09-09T16:19:17;14.23;;;6.20;;
38693;SDS011;24447;43.460;25.744;2022-09-09T16:21:47;17.38;;;6.88;;
38693;SDS011;24447;43.460;25.744;2022-09-09T16:24:15;17.92;;;8.10;;
38693;SDS011;24447;43.460;25.744;2022-09-09T16:26:43;13.40;;;6.30;;
38693;SDS011;24447;43.460;25.744;2022-09-09T16:29:11;26.40;;;6.65;;
38693;SDS011;24447;43.460;25.744;2022-09-09T16:31:39;19.75;;;8.15;;
38693;SDS011;24447;43.460;25.744;2022-09-09T16:34:05;18.02;;;6.90;;
38693;SDS011;24447;43.460;25.744;2022-09-09T16:36:32;24.42;;;9.30;;
38693;SDS011;24447;43.460;25.744;2022-09-09T16:39:04;17.60;;;7.28;;
38693;SDS011;24447;43.460;25.744;2022-09-09T16:41:34;17.15;;;7.03;;
38693;SDS011;24447;43.460;25.744;2022-09-09T16:44:02;27.40;;;8.02;;
38693;SDS011;24447;43.460;25.744;2022-09-09T16:46:29;22.40;;;7.82;;
38693;SDS011;24447;43.460;25.744;2022-09-09T16:48:57;21.33;;;7.88;;
38693;SDS011;24447;43.460;25.744;2022-09-09T16:51:25;16.13;;;7.70;;
38693;SDS011;24447;43.460;25.744;2022-09-09T16:53:56;16.35;;;7.25;;
38693;SDS011;24447;43.460;25.744;2022-09-09T16:56:25;20.45;;;7.07;;
38693;SDS011;24447;43.460;25.744;2022-09-09T16:58:56;21.40;;;8.48;;
38693;SDS011;24447;43.460;25.744;2022-09-09T17:01:24;19.67;;;8.25;;
38693;SDS011;24447;43.460;25.744;2022-09-09T17:03:55;18.52;;;8.10;;
38693;SDS011;24447;43.460;25.744;2022-09-09T17:06:24;13.77;;;7.40;;
38693;SDS011;24447;43.460;25.744;2022-09-09T17:08:54;18.13;;;7.05;;
38693;SDS011;24447;43.460;25.744;2022-09-09T17:11:25;18.75;;;7.43;;
38693;SDS011;24447;43.460;25.744;2022-09-09T17:13:53;23.63;;;7.53;;
38693;SDS011;24447;43.460;25.744;2022-09-09T17:16:21;19.15;;;7.35;;
38693;SDS011;24447;43.460;25.744;2022-09-09T17:18:51;24.02;;;7.18;;
38693;SDS011;24447;43.460;25.744;2022-09-09T17:21:19;18.37;;;7.20;;
38693;SDS011;24447;43.460;25.744;2022-09-09T17:23:46;18.83;;;7.55;;
38693;SDS011;24447;43.460;25.744;2022-09-09T17:26:14;18.98;;;7.80;;
38693;SDS011;24447;43.460;25.744;2022-09-09T17:28:41;17.35;;;8.18;;
38693;SDS011;24447;43.460;25.744;2022-09-09T17:31:09;20.75;;;7.68;;
38693;SDS011;24447;43.460;25.744;2022-09-09T17:33:39;13.75;;;7.20;;
38693;SDS011;24447;43.460;25.744;2022-09-09T17:36:11;21.58;;;8.02;;
38693;SDS011;24447;43.460;25.744;2022-09-09T17:38:39;22.25;;;7.25;;
38693;SDS011;24447;43.460;25.744;2022-09-09T17:41:09;21.17;;;8.15;;
38693;SDS011;24447;43.460;25.744;2022-09-09T17:43:45;15.60;;;7.45;;
38693;SDS011;24447;43.460;25.744;2022-09-09T17:46:22;23.05;;;7.85;;
38693;SDS011;24447;43.460;25.744;2022-09-09T17:48:54;22.75;;;8.40;;
38693;SDS011;24447;43.460;25.744;2022-09-09T17:51:22;17.52;;;7.57;;
38693;SDS011;24447;43.460;25.744;2022-09-09T17:53:50;26.20;;;8.50;;
38693;SDS011;24447;43.460;25.744;2022-09-09T17:56:20;20.95;;;8.63;;
38693;SDS011;24447;43.460;25.744;2022-09-09T17:58:47;17.88;;;7.22;;
38693;SDS011;24447;43.460;25.744;2022-09-09T18:01:15;18.20;;;8.63;;
38693;SDS011;24447;43.460;25.744;2022-09-09T18:03:43;24.15;;;8.38;;
38693;SDS011;24447;43.460;25.744;2022-09-09T18:06:10;23.38;;;7.78;;
38693;SDS011;24447;43.460;25.744;2022-09-09T18:08:38;25.63;;;7.82;;
38693;SDS011;24447;43.460;25.744;2022-09-09T18:11:05;18.77;;;7.63;;
38693;SDS011;24447;43.460;25.744;2022-09-09T18:13:32;17.58;;;7.40;;
38693;SDS011;24447;43.460;25.744;2022-09-09T18:15:58;13.52;;;6.32;;
38693;SDS011;24447;43.460;25.744;2022-09-09T18:18:25;22.27;;;6.88;;
38693;SDS011;24447;43.460;25.744;2022-09-09T18:21:01;16.52;;;6.75;;
38693;SDS011;24447;43.460;25.744;2022-09-09T18:23:31;12.82;;;6.63;;
38693;SDS011;24447;43.460;25.744;2022-09-09T18:26:00;19.58;;;7.47;;
38693;SDS011;24447;43.460;25.744;2022-09-09T18:28:26;17.48;;;7.20;;
38693;SDS011;24447;43.460;25.744;2022-09-09T18:30:52;14.95;;;7.47;;
38693;SDS011;24447;43.460;25.744;2022-09-09T18:33:18;19.70;;;7.40;;
38693;SDS011;24447;43.460;25.744;2022-09-09T18:35:44;15.25;;;7.03;;
38693;SDS011;24447;43.460;25.744;2022-09-09T18:38:12;15.98;;;7.55;;